Time,TemperatureF,DewpointF,PressureIn,WindDirection,WindDirectionDegrees,WindSpeedMPH,WindSpeedGustMPH,Humidity,HourlyPrecipIn,Conditions,Clouds,dailyrainin,SolarRadiationWatts/m^2,SoftwareType,DateUTC
2013-03-03 00:00:00,23.6,16.5,30.03,WNW,298,3.0,12.0,74,0.00,,---,0.00,0.00,VWS V14.01,2013-03-03 05:00:00,
2013-03-03 00:01:00,23.6,16.9,30.03,WNW,288,0.0,12.0,75,0.00,,---,0.00,0.00,VWS V14.01,2013-03-03 05:01:00,
2013-03-03 00:06:00,23.5,16.8,30.03,NW,310,3.0,8.0,75,0.00,,---,0.00,0.00,VWS V14.01,2013-03-03 05:06:00,
2013-03-03 00:11:00,23.5,16.8,30.03,NW,322,5.0,11.0,75,0.00,,---,0.00,0.00,VWS V14.01,2013-03-03 05:11:00,
2013-03-03 00:16:00,23.4,16.7,30.03,NNW,328,6.0,11.0,75,0.00,,---,0.00,0.00,VWS V14.01,2013-03-03 05:16:00,
2013-03-03 00:21:00,23.3,16.6,30.02,NW,321,5.0,12.0,75,0.00,,---,0.00,0.00,VWS V14.01,2013-03-03 05:21:00,
2013-03-03 00:26:00,23.2,16.5,30.03,NW,305,3.0,15.0,75,0.00,,---,0.00,0.00,VWS V14.01,2013-03-03 05:26:00,
2013-03-03 00:30:00,22.9,16.5,30.03,NW,319,7.0,11.0,76,0.00,,---,0.00,0.00,VWS V14.01,2013-03-03 05:30:00,
2013-03-03 00:31:00,23.3,16.9,30.03,WNW,303,3.0,15.0,76,0.00,,---,0.00,0.00,VWS V14.01,2013-03-03 05:31:00,
2013-03-03 00:36:00,23.3,16.9,30.03,NW,322,9.0,9.0,76,0.00,,---,0.00,0.00,VWS V14.01,2013-03-03 05:36:00,
2013-03-03 00:41:00,23.2,16.8,30.03,NW,321,3.0,10.0,76,0.00,,---,0.00,0.00,VWS V14.01,2013-03-03 05:41:00,
2013-03-03 00:46:00,23.2,16.8,30.03,SW,223,2.0,10.0,76,0.00,,---,0.00,0.00,VWS V14.01,2013-03-03 05:46:00,
2013-03-03 00:51:00,23.1,16.4,30.03,NNW,328,7.0,14.0,75,0.00,,---,0.00,0.00,VWS V14.01,2013-03-03 05:51:00,
2013-03-03 00:56:00,23.1,16.4,30.03,NNW,328,4.0,14.0,75,0.00,,---,0.00,0.00,VWS V14.01,2013-03-03 05:56:00,
2013-03-03 01:00:00,22.7,16.3,30.03,NW,319,7.0,12.0,76,0.00,,---,0.00,0.00,VWS V14.01,2013-03-03 06:00:00,
2013-03-03 01:01:00,23.1,16.4,30.03,West,277,4.0,14.0,75,0.00,,---,0.00,0.00,VWS V14.01,2013-03-03 06:01:00,
2013-03-03 01:06:00,23.1,16.4,30.03,NW,310,4.0,10.0,75,0.00,,---,0.00,0.00,VWS V14.01,2013-03-03 06:06:00,
2013-03-03 01:11:00,23.1,16.7,30.03,WNW,284,2.0,10.0,76,0.00,,---,0.00,0.00,VWS V14.01,2013-03-03 06:11:00,
2013-03-03 01:16:00,23.0,16.6,30.03,NW,306,2.0,10.0,76,0.00,,---,0.00,0.00,VWS V14.01,2013-03-03 06:16:00,
2013-03-03 01:21:00,23.0,16.6,30.03,WNW,297,3.0,10.0,76,0.00,,---,0.00,0.00,VWS V14.01,2013-03-03 06:21:00,
2013-03-03 01:26:00,22.9,16.5,30.03,NNW,337,5.0,10.0,76,0.00,,---,0.00,0.00,VWS V14.01,2013-03-03 06:26:00,
2013-03-03 01:30:00,22.6,16.5,30.02,NW,326,3.0,11.0,77,0.00,,---,0.00,0.00,VWS V14.01,2013-03-03 06:30:00,
2013-03-03 01:31:00,22.9,16.5,30.03,NNW,336,5.0,10.0,76,0.00,,---,0.00,0.00,VWS V14.01,2013-03-03 06:31:00,
2013-03-03 01:36:00,22.9,16.5,30.03,WSW,256,11.0,11.0,76,0.00,,---,0.00,0.00,VWS V14.01,2013-03-03 06:36:00,
2013-03-03 01:41:00,22.9,16.5,30.03,NW,313,2.0,11.0,76,0.00,,---,0.00,0.00,VWS V14.01,2013-03-03 06:41:00,
2013-03-03 01:47:00,22.8,16.4,30.03,WNW,292,2.0,11.0,76,0.00,,---,0.00,0.00,VWS V14.01,2013-03-03 06:47:00,
2013-03-03 01:52:00,22.8,16.4,30.04,NW,305,6.0,12.0,76,0.00,,---,0.00,0.00,VWS V14.01,2013-03-03 06:52:00,
2013-03-03 01:57:00,22.8,16.4,30.04,West,279,5.0,12.0,76,0.00,,---,0.00,0.00,VWS V14.01,2013-03-03 06:57:00,
2013-03-03 02:00:00,22.3,15.9,30.03,NNW,342,9.0,14.0,76,0.00,,---,0.00,0.00,VWS V14.01,2013-03-03 07:00:00,
2013-03-03 02:02:00,22.8,16.4,30.03,NNW,327,3.0,12.0,76,0.00,,---,0.00,0.00,VWS V14.01,2013-03-03 07:02:00,
2013-03-03 02:07:00,22.7,16.3,30.04,NW,311,4.0,11.0,76,0.00,,---,0.00,0.00,VWS V14.01,2013-03-03 07:07:00,
2013-03-03 02:12:00,22.7,16.6,30.03,NW,311,5.0,11.0,77,0.00,,---,0.00,0.00,VWS V14.01,2013-03-03 07:12:00,
2013-03-03 02:17:00,22.7,16.6,30.03,NNW,336,6.0,11.0,77,0.00,,---,0.00,0.00,VWS V14.01,2013-03-03 07:17:00,
2013-03-03 02:22:00,22.7,16.6,30.03,NW,322,6.0,11.0,77,0.00,,---,0.00,0.00,VWS V14.01,2013-03-03 07:22:00,
2013-03-03 02:27:00,22.7,16.6,30.03,WNW,282,3.0,11.0,77,0.00,,---,0.00,0.00,VWS V14.01,2013-03-03 07:27:00,
2013-03-03 02:30:00,22.2,15.2,30.03,NW,321,3.0,11.0,74,0.00,,---,0.00,0.00,VWS V14.01,2013-03-03 07:30:00,
2013-03-03 02:32:00,22.6,16.5,30.02,NW,326,3.0,11.0,77,0.00,,---,0.00,0.00,VWS V14.01,2013-03-03 07:32:00,
2013-03-03 02:37:00,22.6,16.8,30.02,NNW,328,3.0,6.0,78,0.00,,---,0.00,0.00,VWS V14.01,2013-03-03 07:37:00,
2013-03-03 02:42:00,22.6,16.8,30.03,NW,309,7.0,13.0,78,0.00,,---,0.00,0.00,VWS V14.01,2013-03-03 07:42:00,
2013-03-03 02:47:00,22.5,16.7,30.02,NNW,329,4.0,13.0,78,0.00,,---,0.00,0.00,VWS V14.01,2013-03-03 07:47:00,
2013-03-03 02:52:00,22.5,16.7,30.02,WNW,302,1.0,13.0,78,0.00,,---,0.00,0.00,VWS V14.01,2013-03-03 07:52:00,
2013-03-03 02:57:00,22.4,16.3,30.03,WSW,257,2.0,13.0,77,0.00,,---,0.00,0.00,VWS V14.01,2013-03-03 07:57:00,
2013-03-03 03:00:00,22.0,15.3,30.01,WNW,298,2.0,11.0,75,0.00,,---,0.00,0.00,VWS V14.01,2013-03-03 08:00:00,
2013-03-03 03:02:00,22.4,16.0,30.02,NNW,331,4.0,9.0,76,0.00,,---,0.00,0.00,VWS V14.01,2013-03-03 08:02:00,
2013-03-03 03:07:00,22.3,15.6,30.02,NNW,327,3.0,10.0,75,0.00,,---,0.00,0.00,VWS V14.01,2013-03-03 08:07:00,
2013-03-03 03:12:00,22.3,15.6,30.02,West,277,4.0,10.0,75,0.00,,---,0.00,0.00,VWS V14.01,2013-03-03 08:12:00,
2013-03-03 03:18:00,22.3,15.6,30.02,NW,323,4.0,10.0,75,0.00,,---,0.00,0.00,VWS V14.01,2013-03-03 08:18:00,
2013-03-03 03:23:00,22.3,15.3,30.02,WNW,286,6.0,10.0,74,0.00,,---,0.00,0.00,VWS V14.01,2013-03-03 08:23:00,
2013-03-03 03:28:00,22.2,15.2,30.02,West,281,3.0,10.0,74,0.00,,---,0.00,0.00,VWS V14.01,2013-03-03 08:28:00,
2013-03-03 03:30:00,22.0,15.9,30.02,SW,218,4.0,14.0,77,0.00,,---,0.00,0.00,VWS V14.01,2013-03-03 08:30:00,
2013-03-03 03:33:00,22.2,15.2,30.02,NW,314,4.0,6.0,74,0.00,,---,0.00,0.00,VWS V14.01,2013-03-03 08:33:00,
2013-03-03 03:38:00,22.2,15.2,30.02,West,269,5.0,9.0,74,0.00,,---,0.00,0.00,VWS V14.01,2013-03-03 08:38:00,
2013-03-03 03:43:00,22.2,15.2,30.02,NW,325,7.0,10.0,74,0.00,,---,0.00,0.00,VWS V14.01,2013-03-03 08:43:00,
2013-03-03 03:48:00,22.1,15.1,30.02,NW,314,3.0,10.0,74,0.00,,---,0.00,0.00,VWS V14.01,2013-03-03 08:48:00,
2013-03-03 03:53:00,22.1,15.4,30.02,NW,311,2.0,10.0,75,0.00,,---,0.00,0.00,VWS V14.01,2013-03-03 08:53:00,
2013-03-03 03:58:00,22.1,15.4,30.01,WSW,242,6.0,10.0,75,0.00,,---,0.00,0.00,VWS V14.01,2013-03-03 08:58:00,
2013-03-03 04:00:00,21.6,16.1,30.02,West,273,2.0,12.0,79,0.00,,---,0.00,0.00,VWS V14.01,2013-03-03 09:00:00,
2013-03-03 04:03:00,22.0,15.3,30.02,NW,315,0.0,4.0,75,0.00,,---,0.00,0.00,VWS V14.01,2013-03-03 09:03:00,
2013-03-03 04:08:00,22.0,15.3,30.02,WNW,302,3.0,10.0,75,0.00,,---,0.00,0.00,VWS V14.01,2013-03-03 09:08:00,
2013-03-03 04:13:00,22.0,15.3,30.02,WNW,302,4.0,10.0,75,0.00,,---,0.00,0.00,VWS V14.01,2013-03-03 09:13:00,
2013-03-03 04:18:00,22.0,15.6,30.02,NW,308,1.0,10.0,76,0.00,,---,0.00,0.00,VWS V14.01,2013-03-03 09:18:00,
2013-03-03 04:23:00,22.0,15.6,30.02,West,278,2.0,12.0,76,0.00,,---,0.00,0.00,VWS V14.01,2013-03-03 09:23:00,
2013-03-03 04:28:00,22.0,15.9,30.02,NNW,332,4.0,12.0,77,0.00,,---,0.00,0.00,VWS V14.01,2013-03-03 09:28:00,
2013-03-03 04:30:00,21.5,16.0,30.03,WNW,302,2.0,11.0,79,0.00,,---,0.00,0.00,VWS V14.01,2013-03-03 09:30:00,
2013-03-03 04:33:00,21.9,15.8,30.02,NW,311,7.0,7.0,77,0.00,,---,0.00,0.00,VWS V14.01,2013-03-03 09:33:00,
2013-03-03 04:38:00,21.8,16.0,30.03,WNW,289,10.0,12.0,78,0.00,,---,0.00,0.00,VWS V14.01,2013-03-03 09:38:00,
2013-03-03 04:43:00,21.8,16.0,30.02,WNW,287,6.0,12.0,78,0.00,,---,0.00,0.00,VWS V14.01,2013-03-03 09:43:00,
2013-03-03 04:48:00,21.7,15.9,30.02,WNW,287,0.0,12.0,78,0.00,,---,0.00,0.00,VWS V14.01,2013-03-03 09:48:00,
2013-03-03 04:53:00,21.7,15.9,30.02,West,272,10.0,12.0,78,0.00,,---,0.00,0.00,VWS V14.01,2013-03-03 09:53:00,
2013-03-03 04:58:00,21.6,16.1,30.02,NW,309,3.0,12.0,79,0.00,,---,0.00,0.00,VWS V14.01,2013-03-03 09:58:00,
2013-03-03 05:00:00,21.3,15.5,30.03,NNW,329,4.0,12.0,78,0.00,,---,0.00,0.00,VWS V14.01,2013-03-03 10:00:00,
2013-03-03 05:03:00,21.6,16.1,30.02,West,281,2.0,3.0,79,0.00,,---,0.00,0.00,VWS V14.01,2013-03-03 10:03:00,
2013-03-03 05:08:00,21.6,16.1,30.02,WNW,303,3.0,10.0,79,0.00,,---,0.00,0.00,VWS V14.01,2013-03-03 10:08:00,
2013-03-03 05:13:00,21.6,16.1,30.03,WNW,285,2.0,10.0,79,0.00,,---,0.00,0.00,VWS V14.01,2013-03-03 10:13:00,
2013-03-03 05:18:00,21.5,15.7,30.03,West,279,8.0,11.0,78,0.00,,---,0.00,0.00,VWS V14.01,2013-03-03 10:18:00,
2013-03-03 05:24:00,21.5,16.0,30.03,SW,232,1.0,11.0,79,0.00,,---,0.00,0.00,VWS V14.01,2013-03-03 10:24:00,
2013-03-03 05:29:00,21.5,16.0,30.03,WNW,298,3.0,11.0,79,0.00,,---,0.00,0.00,VWS V14.01,2013-03-03 10:29:00,
2013-03-03 05:30:00,21.4,15.3,30.04,WSW,256,10.0,11.0,77,0.00,,---,0.00,0.00,VWS V14.01,2013-03-03 10:30:00,
2013-03-03 05:34:00,21.5,16.0,30.03,WNW,282,0.0,4.0,79,0.00,,---,0.00,0.00,VWS V14.01,2013-03-03 10:34:00,
2013-03-03 05:39:00,21.4,15.9,30.04,West,280,6.0,12.0,79,0.00,,---,0.00,0.00,VWS V14.01,2013-03-03 10:39:00,
2013-03-03 05:44:00,21.3,15.8,30.04,WNW,294,5.0,12.0,79,0.00,,---,0.00,0.00,VWS V14.01,2013-03-03 10:44:00,
2013-03-03 05:49:00,21.2,15.7,30.03,West,269,4.0,12.0,79,0.00,,---,0.00,0.00,VWS V14.01,2013-03-03 10:49:00,
2013-03-03 05:54:00,21.2,15.7,30.03,West,266,0.0,12.0,79,0.00,,---,0.00,0.00,VWS V14.01,2013-03-03 10:54:00,
2013-03-03 05:59:00,21.2,15.4,30.04,NW,309,4.0,12.0,78,0.00,,---,0.00,0.00,VWS V14.01,2013-03-03 10:59:00,
2013-03-03 06:00:00,21.4,15.0,30.04,NNW,345,11.0,11.0,76,0.00,,---,0.00,5.00,VWS V14.01,2013-03-03 11:00:00,
2013-03-03 06:04:00,21.2,15.4,30.03,NNW,339,4.0,5.0,78,0.00,,---,0.00,0.00,VWS V14.01,2013-03-03 11:04:00,
2013-03-03 06:09:00,21.3,15.5,30.03,WSW,258,3.0,7.0,78,0.00,,---,0.00,0.00,VWS V14.01,2013-03-03 11:09:00,
2013-03-03 06:14:00,21.3,15.2,30.03,WSW,251,4.0,11.0,77,0.00,,---,0.00,0.00,VWS V14.01,2013-03-03 11:14:00,
2013-03-03 06:19:00,21.3,15.2,30.03,WNW,302,0.0,11.0,77,0.00,,---,0.00,0.00,VWS V14.01,2013-03-03 11:19:00,
2013-03-03 06:24:00,21.3,15.2,30.03,West,281,1.0,11.0,77,0.00,,---,0.00,0.00,VWS V14.01,2013-03-03 11:24:00,
2013-03-03 06:29:00,21.3,15.2,30.04,WNW,294,2.0,11.0,77,0.00,,---,0.00,0.00,VWS V14.01,2013-03-03 11:29:00,
2013-03-03 06:30:00,21.6,14.9,30.05,NW,313,9.0,12.0,75,0.00,,---,0.00,35.00,VWS V14.01,2013-03-03 11:30:00,
2013-03-03 06:34:00,21.4,15.3,30.04,NW,313,6.0,10.0,77,0.00,,---,0.00,0.00,VWS V14.01,2013-03-03 11:34:00,
2013-03-03 06:39:00,21.4,15.0,30.03,NW,313,3.0,10.0,76,0.00,,---,0.00,0.00,VWS V14.01,2013-03-03 11:39:00,
2013-03-03 06:44:00,21.3,14.9,30.04,WNW,290,0.0,10.0,76,0.00,,---,0.00,0.00,VWS V14.01,2013-03-03 11:44:00,
2013-03-03 06:50:00,21.4,15.0,30.04,WNW,287,1.0,10.0,76,0.00,,---,0.00,0.00,VWS V14.01,2013-03-03 11:50:00,
2013-03-03 06:55:00,21.4,15.0,30.04,WNW,296,3.0,10.0,76,0.00,,---,0.00,0.00,VWS V14.01,2013-03-03 11:55:00,
2013-03-03 07:00:00,21.4,15.0,30.04,West,262,6.0,10.0,76,0.00,,---,0.00,5.00,VWS V14.01,2013-03-03 12:00:00,
2013-03-03 07:05:00,21.4,15.0,30.04,NW,309,4.0,10.0,76,0.00,,---,0.00,5.00,VWS V14.01,2013-03-03 12:05:00,
2013-03-03 07:10:00,21.4,15.0,30.05,NW,322,5.0,10.0,76,0.00,,---,0.00,9.00,VWS V14.01,2013-03-03 12:10:00,
2013-03-03 07:15:00,21.5,15.1,30.05,NW,307,1.0,10.0,76,0.00,,---,0.00,11.00,VWS V14.01,2013-03-03 12:15:00,
2013-03-03 07:20:00,21.5,15.1,30.05,NW,304,3.0,11.0,76,0.00,,---,0.00,18.00,VWS V14.01,2013-03-03 12:20:00,
2013-03-03 07:25:00,21.6,15.2,30.05,WSW,243,3.0,11.0,76,0.00,,---,0.00,25.00,VWS V14.01,2013-03-03 12:25:00,
2013-03-03 07:30:00,21.6,14.9,30.05,NW,314,5.0,11.0,75,0.00,,---,0.00,33.00,VWS V14.01,2013-03-03 12:30:00,
2013-03-03 07:35:00,21.6,14.9,30.05,WSW,251,3.0,9.0,75,0.00,,---,0.00,46.00,VWS V14.01,2013-03-03 12:35:00,
2013-03-03 07:40:00,21.7,15.0,30.05,WNW,290,6.0,9.0,75,0.00,,---,0.00,39.00,VWS V14.01,2013-03-03 12:40:00,
2013-03-03 07:45:00,21.7,14.7,30.05,WSW,246,2.0,16.0,74,0.00,,---,0.00,56.00,VWS V14.01,2013-03-03 12:45:00,
2013-03-03 07:50:00,21.8,14.8,30.05,NW,321,3.0,16.0,74,0.00,,---,0.00,51.00,VWS V14.01,2013-03-03 12:50:00,
2013-03-03 07:55:00,21.9,14.9,30.06,West,280,4.0,16.0,74,0.00,,---,0.00,62.00,VWS V14.01,2013-03-03 12:55:00,
2013-03-03 08:00:00,21.9,14.6,30.05,WNW,297,4.0,16.0,73,0.00,,---,0.00,81.00,VWS V14.01,2013-03-03 13:00:00,
2013-03-03 08:05:00,22.0,14.7,30.06,NNW,328,4.0,10.0,73,0.00,,---,0.00,70.00,VWS V14.01,2013-03-03 13:05:00,
2013-03-03 08:10:00,22.1,14.8,30.06,West,281,2.0,10.0,73,0.00,,---,0.00,102.00,VWS V14.01,2013-03-03 13:10:00,
2013-03-03 08:15:00,22.2,14.9,30.06,NNW,327,4.0,10.0,73,0.00,,---,0.00,84.00,VWS V14.01,2013-03-03 13:15:00,
2013-03-03 08:20:00,22.4,15.1,30.06,WNW,300,5.0,10.0,73,0.00,,---,0.00,95.00,VWS V14.01,2013-03-03 13:20:00,
2013-03-03 08:25:00,22.4,15.1,30.06,NW,313,1.0,10.0,73,0.00,,---,0.00,93.00,VWS V14.01,2013-03-03 13:25:00,
2013-03-03 08:30:00,22.5,15.2,30.06,NW,313,2.0,10.0,73,0.00,,---,0.00,107.00,VWS V14.01,2013-03-03 13:30:00,
2013-03-03 08:35:00,22.7,15.7,30.06,WSW,251,6.0,10.0,74,0.00,,---,0.00,86.00,VWS V14.01,2013-03-03 13:35:00,
2013-03-03 08:40:00,22.6,16.2,30.07,NW,304,4.0,14.0,76,0.00,,---,0.00,98.00,VWS V14.01,2013-03-03 13:40:00,
2013-03-03 08:45:00,22.5,16.4,30.07,WSW,248,5.0,14.0,77,0.00,,---,0.00,104.00,VWS V14.01,2013-03-03 13:45:00,
2013-03-03 08:50:00,22.4,16.6,30.07,NW,306,8.0,14.0,78,0.00,,---,0.00,125.00,VWS V14.01,2013-03-03 13:50:00,
2013-03-03 08:55:00,22.4,16.9,30.07,NW,312,4.0,14.0,79,0.00,,---,0.00,139.00,VWS V14.01,2013-03-03 13:55:00,
2013-03-03 09:00:00,22.8,16.1,30.07,NW,317,5.0,13.0,75,0.00,,---,0.00,139.00,VWS V14.01,2013-03-03 14:00:00,
2013-03-03 09:01:00,22.3,16.8,30.07,WSW,254,6.0,14.0,79,0.00,,---,0.00,123.00,VWS V14.01,2013-03-03 14:01:00,
2013-03-03 09:05:00,22.3,17.1,30.07,NW,319,2.0,8.0,80,0.00,,---,0.00,142.00,VWS V14.01,2013-03-03 14:05:00,
2013-03-03 09:10:00,22.3,16.8,30.07,WNW,284,10.0,15.0,79,0.00,,---,0.00,111.00,VWS V14.01,2013-03-03 14:10:00,
2013-03-03 09:15:00,22.2,16.4,30.07,West,273,3.0,15.0,78,0.00,,---,0.00,141.00,VWS V14.01,2013-03-03 14:15:00,
2013-03-03 09:20:00,22.2,16.4,30.07,West,276,6.0,15.0,78,0.00,,---,0.00,125.00,VWS V14.01,2013-03-03 14:20:00,
2013-03-03 09:25:00,22.2,16.4,30.07,NW,314,2.0,15.0,78,0.00,,---,0.00,162.00,VWS V14.01,2013-03-03 14:25:00,
2013-03-03 09:30:00,22.4,16.6,30.07,WSW,250,5.0,15.0,78,0.00,,---,0.00,167.00,VWS V14.01,2013-03-03 14:30:00,
2013-03-03 09:35:00,22.5,16.7,30.07,WNW,301,6.0,10.0,78,0.00,,---,0.00,188.00,VWS V14.01,2013-03-03 14:35:00,
2013-03-03 09:40:00,22.6,16.5,30.07,WNW,294,3.0,12.0,77,0.00,,---,0.00,167.00,VWS V14.01,2013-03-03 14:40:00,
2013-03-03 09:45:00,22.6,16.5,30.07,NW,307,5.0,13.0,77,0.00,,---,0.00,165.00,VWS V14.01,2013-03-03 14:45:00,
2013-03-03 09:50:00,22.7,16.3,30.07,NW,325,3.0,13.0,76,0.00,,---,0.00,128.00,VWS V14.01,2013-03-03 14:50:00,
2013-03-03 09:55:00,22.7,16.0,30.07,WNW,290,5.0,13.0,75,0.00,,---,0.00,146.00,VWS V14.01,2013-03-03 14:55:00,
2013-03-03 10:00:00,22.8,15.8,30.07,NW,318,6.0,13.0,74,0.00,,---,0.00,160.00,VWS V14.01,2013-03-03 15:00:00,
2013-03-03 10:06:00,22.9,15.9,30.07,WNW,303,4.0,7.0,74,0.00,,---,0.00,162.00,VWS V14.01,2013-03-03 15:06:00,
2013-03-03 10:11:00,23.0,16.3,30.07,NW,306,0.0,7.0,75,0.00,,---,0.00,183.00,VWS V14.01,2013-03-03 15:11:00,
2013-03-03 10:16:00,23.2,16.5,30.07,WNW,290,2.0,7.0,75,0.00,,---,0.00,223.00,VWS V14.01,2013-03-03 15:16:00,
2013-03-03 10:20:00,23.4,16.7,30.07,NW,310,2.0,9.0,75,0.00,,---,0.00,192.00,VWS V14.01,2013-03-03 15:20:00,
2013-03-03 10:25:00,23.6,16.2,30.07,NW,308,6.0,9.0,73,0.00,,---,0.00,185.00,VWS V14.01,2013-03-03 15:25:00,
2013-03-03 10:30:00,24.7,16.3,30.07,NW,304,4.0,19.0,70,0.00,,---,0.00,264.00,VWS V14.01,2013-03-03 15:30:00,
2013-03-03 10:31:00,23.6,16.2,30.07,WSW,257,5.0,9.0,73,0.00,,---,0.00,179.00,VWS V14.01,2013-03-03 15:31:00,
2013-03-03 10:36:00,23.8,16.7,30.07,West,262,3.0,5.0,74,0.00,,---,0.00,248.00,VWS V14.01,2013-03-03 15:36:00,
2013-03-03 10:41:00,23.9,16.2,30.07,WNW,286,10.0,12.0,72,0.00,,---,0.00,283.00,VWS V14.01,2013-03-03 15:41:00,
2013-03-03 10:46:00,24.0,16.3,30.07,WNW,302,6.0,13.0,72,0.00,,---,0.00,209.00,VWS V14.01,2013-03-03 15:46:00,
2013-03-03 10:51:00,24.0,16.3,30.07,NW,306,4.0,13.0,72,0.00,,---,0.00,243.00,VWS V14.01,2013-03-03 15:51:00,
2013-03-03 10:56:00,24.0,16.3,30.06,WNW,282,2.0,13.0,72,0.00,,---,0.00,295.00,VWS V14.01,2013-03-03 15:56:00,
2013-03-03 11:00:00,25.6,16.5,30.07,West,269,6.0,12.0,68,0.00,,---,0.00,260.00,VWS V14.01,2013-03-03 16:00:00,
2013-03-03 11:01:00,24.3,16.6,30.07,WNW,288,7.0,13.0,72,0.00,,---,0.00,237.00,VWS V14.01,2013-03-03 16:01:00,
2013-03-03 11:06:00,24.4,16.4,30.07,NW,320,2.0,13.0,71,0.00,,---,0.00,204.00,VWS V14.01,2013-03-03 16:06:00,
2013-03-03 11:11:00,24.5,16.1,30.08,West,269,10.0,19.0,70,0.00,,---,0.00,192.00,VWS V14.01,2013-03-03 16:11:00,
2013-03-03 11:16:00,24.4,16.0,30.07,NNW,330,5.0,19.0,70,0.00,,---,0.00,285.00,VWS V14.01,2013-03-03 16:16:00,
2013-03-03 11:21:00,24.5,16.5,30.08,West,267,7.0,19.0,71,0.00,,---,0.00,243.00,VWS V14.01,2013-03-03 16:21:00,
2013-03-03 11:27:00,24.6,16.2,30.08,SW,235,7.0,19.0,70,0.00,,---,0.00,218.00,VWS V14.01,2013-03-03 16:27:00,
2013-03-03 11:30:00,26.4,16.9,30.06,West,274,7.0,16.0,67,0.00,,---,0.00,865.00,VWS V14.01,2013-03-03 16:30:00,
2013-03-03 11:32:00,24.7,16.3,30.07,NW,309,4.0,19.0,70,0.00,,---,0.00,250.00,VWS V14.01,2013-03-03 16:32:00,
2013-03-03 11:37:00,24.9,16.2,30.07,West,277,5.0,11.0,69,0.00,,---,0.00,297.00,VWS V14.01,2013-03-03 16:37:00,
2013-03-03 11:42:00,25.1,16.4,30.07,NW,326,4.0,11.0,69,0.00,,---,0.00,299.00,VWS V14.01,2013-03-03 16:42:00,
2013-03-03 11:47:00,25.3,16.2,30.07,NNW,336,6.0,11.0,68,0.00,,---,0.00,297.00,VWS V14.01,2013-03-03 16:47:00,
2013-03-03 11:52:00,25.4,16.0,30.07,NW,315,4.0,11.0,67,0.00,,---,0.00,360.00,VWS V14.01,2013-03-03 16:52:00,
2013-03-03 11:57:00,25.5,16.1,30.06,West,279,6.0,12.0,67,0.00,,---,0.00,258.00,VWS V14.01,2013-03-03 16:57:00,
2013-03-03 12:00:00,26.9,16.4,30.06,WSW,249,9.0,16.0,64,0.00,,---,0.00,288.00,VWS V14.01,2013-03-03 17:00:00,
2013-03-03 12:02:00,25.5,16.4,30.06,WNW,298,5.0,12.0,68,0.00,,---,0.00,251.00,VWS V14.01,2013-03-03 17:02:00,
2013-03-03 12:07:00,25.6,16.2,30.07,WNW,295,5.0,12.0,67,0.00,,---,0.00,251.00,VWS V14.01,2013-03-03 17:07:00,
2013-03-03 12:12:00,25.6,16.2,30.07,WSW,251,12.0,15.0,67,0.00,,---,0.00,297.00,VWS V14.01,2013-03-03 17:12:00,
2013-03-03 12:17:00,25.6,16.2,30.07,WSW,246,5.0,15.0,67,0.00,,---,0.00,329.00,VWS V14.01,2013-03-03 17:17:00,
2013-03-03 12:22:00,25.7,16.6,30.07,NW,312,6.0,16.0,68,0.00,,---,0.00,469.00,VWS V14.01,2013-03-03 17:22:00,
2013-03-03 12:27:00,26.0,16.6,30.06,West,277,9.0,16.0,67,0.00,,---,0.00,322.00,VWS V14.01,2013-03-03 17:27:00,
2013-03-03 12:30:00,26.2,16.4,30.05,West,259,11.0,16.0,66,0.00,,---,0.00,262.00,VWS V14.01,2013-03-03 17:30:00,
2013-03-03 12:32:00,26.4,16.9,30.06,West,265,10.0,16.0,67,0.00,,---,0.00,865.00,VWS V14.01,2013-03-03 17:32:00,
2013-03-03 12:37:00,26.5,16.7,30.06,NW,305,7.0,16.0,66,0.00,,---,0.00,288.00,VWS V14.01,2013-03-03 17:37:00,
2013-03-03 12:42:00,26.7,16.9,30.06,NNW,329,2.0,16.0,66,0.00,,---,0.00,301.00,VWS V14.01,2013-03-03 17:42:00,
2013-03-03 12:47:00,26.9,16.4,30.05,NW,313,5.0,16.0,64,0.00,,---,0.00,257.00,VWS V14.01,2013-03-03 17:47:00,
2013-03-03 12:52:00,27.0,16.5,30.06,WNW,286,7.0,16.0,64,0.00,,---,0.00,218.00,VWS V14.01,2013-03-03 17:52:00,
2013-03-03 12:57:00,26.9,16.4,30.06,West,266,7.0,16.0,64,0.00,,---,0.00,311.00,VWS V14.01,2013-03-03 17:57:00,
2013-03-03 13:00:00,26.4,16.2,30.05,WNW,298,5.0,16.0,65,0.00,,---,0.00,352.00,VWS V14.01,2013-03-03 18:00:00,
2013-03-03 13:02:00,26.9,16.4,30.06,WSW,249,9.0,16.0,64,0.00,,---,0.00,288.00,VWS V14.01,2013-03-03 18:02:00,
2013-03-03 13:07:00,26.6,16.4,30.05,NW,319,4.0,12.0,65,0.00,,---,0.00,223.00,VWS V14.01,2013-03-03 18:07:00,
2013-03-03 13:12:00,26.7,16.9,30.05,West,259,5.0,12.0,66,0.00,,---,0.00,176.00,VWS V14.01,2013-03-03 18:12:00,
2013-03-03 13:17:00,26.6,16.4,30.05,SW,234,9.0,15.0,65,0.00,,---,0.00,213.00,VWS V14.01,2013-03-03 18:17:00,
2013-03-03 13:22:00,26.3,16.5,30.05,West,262,7.0,16.0,66,0.00,,---,0.00,225.00,VWS V14.01,2013-03-03 18:22:00,
2013-03-03 13:27:00,26.2,16.1,30.05,NW,317,11.0,16.0,65,0.00,,---,0.00,283.00,VWS V14.01,2013-03-03 18:27:00,
2013-03-03 13:30:00,27.5,17.3,30.05,NW,325,4.0,16.0,65,0.00,,---,0.00,218.00,VWS V14.01,2013-03-03 18:30:00,
2013-03-03 13:32:00,26.2,16.4,30.05,WSW,251,9.0,11.0,66,0.00,,---,0.00,262.00,VWS V14.01,2013-03-03 18:32:00,
2013-03-03 13:37:00,26.1,16.3,30.05,WSW,258,6.0,13.0,66,0.00,,---,0.00,308.00,VWS V14.01,2013-03-03 18:37:00,
2013-03-03 13:42:00,26.2,16.4,30.05,WNW,293,16.0,16.0,66,0.00,,---,0.00,320.00,VWS V14.01,2013-03-03 18:42:00,
2013-03-03 13:48:00,26.4,16.6,30.05,NW,313,10.0,16.0,66,0.00,,---,0.00,232.00,VWS V14.01,2013-03-03 18:48:00,
2013-03-03 13:52:00,26.3,16.1,30.05,NW,304,9.0,16.0,65,0.00,,---,0.00,246.00,VWS V14.01,2013-03-03 18:52:00,
2013-03-03 13:58:00,26.4,15.9,30.05,WNW,288,8.0,16.0,64,0.00,,---,0.00,272.00,VWS V14.01,2013-03-03 18:58:00,
2013-03-03 14:00:00,27.6,17.4,30.04,NW,319,6.0,17.0,65,0.00,,---,0.00,223.00,VWS V14.01,2013-03-03 19:00:00,
2013-03-03 14:03:00,26.4,16.2,30.05,NW,304,3.0,6.0,65,0.00,,---,0.00,485.00,VWS V14.01,2013-03-03 19:03:00,
2013-03-03 14:08:00,26.9,16.7,30.04,WNW,282,3.0,12.0,65,0.00,,---,0.00,483.00,VWS V14.01,2013-03-03 19:08:00,
2013-03-03 14:13:00,27.6,17.0,30.04,WNW,289,5.0,12.0,64,0.00,,---,0.00,336.00,VWS V14.01,2013-03-03 19:13:00,
2013-03-03 14:18:00,27.6,16.3,30.04,WSW,247,10.0,16.0,62,0.00,,---,0.00,394.00,VWS V14.01,2013-03-03 19:18:00,
2013-03-03 14:23:00,27.3,16.8,30.04,WSW,256,12.0,16.0,64,0.00,,---,0.00,315.00,VWS V14.01,2013-03-03 19:23:00,
2013-03-03 14:28:00,27.4,16.8,30.05,West,266,4.0,16.0,64,0.00,,---,0.00,227.00,VWS V14.01,2013-03-03 19:28:00,
2013-03-03 14:30:00,28.9,17.2,30.05,NW,307,4.0,14.0,61,0.00,,---,0.00,510.00,VWS V14.01,2013-03-03 19:30:00,
2013-03-03 14:33:00,27.5,17.3,30.04,WSW,257,6.0,6.0,65,0.00,,---,0.00,220.00,VWS V14.01,2013-03-03 19:33:00,
2013-03-03 14:38:00,27.4,17.2,30.05,West,270,10.0,12.0,65,0.00,,---,0.00,244.00,VWS V14.01,2013-03-03 19:38:00,
2013-03-03 14:43:00,27.2,17.7,30.05,SW,223,7.0,12.0,67,0.00,,---,0.00,213.00,VWS V14.01,2013-03-03 19:43:00,
2013-03-03 14:48:00,27.1,17.6,30.05,WSW,257,9.0,14.0,67,0.00,,---,0.00,297.00,VWS V14.01,2013-03-03 19:48:00,
2013-03-03 14:53:00,27.2,17.0,30.05,NW,320,4.0,17.0,65,0.00,,---,0.00,826.00,VWS V14.01,2013-03-03 19:53:00,
2013-03-03 14:58:00,27.5,16.9,30.04,WSW,248,4.0,17.0,64,0.00,,---,0.00,199.00,VWS V14.01,2013-03-03 19:58:00,
2013-03-03 15:00:00,29.0,16.5,30.05,West,281,5.0,17.0,59,0.00,,---,0.00,181.00,VWS V14.01,2013-03-03 20:00:00,
2013-03-03 15:03:00,27.6,17.4,30.04,NW,306,4.0,6.0,65,0.00,,---,0.00,223.00,VWS V14.01,2013-03-03 20:03:00,
2013-03-03 15:08:00,27.6,17.0,30.04,WNW,290,3.0,7.0,64,0.00,,---,0.00,214.00,VWS V14.01,2013-03-03 20:08:00,
2013-03-03 15:13:00,27.9,17.0,30.04,WSW,252,9.0,11.0,63,0.00,,---,0.00,708.00,VWS V14.01,2013-03-03 20:13:00,
2013-03-03 15:18:00,28.3,17.3,30.04,NNW,344,5.0,12.0,63,0.00,,---,0.00,577.00,VWS V14.01,2013-03-03 20:18:00,
2013-03-03 15:23:00,28.7,17.3,30.04,NW,306,11.0,12.0,62,0.00,,---,0.00,621.00,VWS V14.01,2013-03-03 20:23:00,
2013-03-03 15:28:00,28.9,17.2,30.04,NNW,331,2.0,14.0,61,0.00,,---,0.00,461.00,VWS V14.01,2013-03-03 20:28:00,
2013-03-03 15:30:00,28.5,16.4,30.05,WNW,290,11.0,16.0,60,0.00,,---,0.00,162.00,VWS V14.01,2013-03-03 20:30:00,
2013-03-03 15:33:00,28.9,17.2,30.04,WNW,303,5.0,7.0,61,0.00,,---,0.00,489.00,VWS V14.01,2013-03-03 20:33:00,
2013-03-03 15:38:00,29.0,17.2,30.04,NW,313,6.0,14.0,61,0.00,,---,0.00,564.00,VWS V14.01,2013-03-03 20:38:00,
2013-03-03 15:43:00,29.2,17.1,30.04,WNW,298,7.0,14.0,60,0.00,,---,0.00,568.00,VWS V14.01,2013-03-03 20:43:00,
2013-03-03 15:48:00,29.6,17.0,30.04,NW,313,10.0,14.0,59,0.00,,---,0.00,446.00,VWS V14.01,2013-03-03 20:48:00,
2013-03-03 15:53:00,29.7,17.1,30.04,NNW,342,6.0,14.0,59,0.00,,---,0.00,396.00,VWS V14.01,2013-03-03 20:53:00,
2013-03-03 15:58:00,29.2,16.3,30.05,NNW,329,7.0,17.0,58,0.00,,---,0.00,148.00,VWS V14.01,2013-03-03 20:58:00,
2013-03-03 16:00:00,27.5,16.2,30.06,WNW,294,5.0,17.0,62,0.00,,---,0.00,91.00,VWS V14.01,2013-03-03 21:00:00,
2013-03-03 16:03:00,29.0,16.9,30.05,West,281,9.0,11.0,60,0.00,,---,0.00,181.00,VWS V14.01,2013-03-03 21:03:00,
2013-03-03 16:08:00,29.2,17.1,30.05,WNW,300,2.0,11.0,60,0.00,,---,0.00,387.00,VWS V14.01,2013-03-03 21:08:00,
2013-03-03 16:14:00,29.6,17.0,30.05,NW,321,9.0,11.0,59,0.00,,---,0.00,90.00,VWS V14.01,2013-03-03 21:14:00,
2013-03-03 16:19:00,29.3,16.8,30.05,NNW,329,7.0,16.0,59,0.00,,---,0.00,153.00,VWS V14.01,2013-03-03 21:19:00,
2013-03-03 16:24:00,29.0,16.9,30.05,NW,323,5.0,16.0,60,0.00,,---,0.00,118.00,VWS V14.01,2013-03-03 21:24:00,
2013-03-03 16:29:00,28.7,16.6,30.05,West,274,9.0,16.0,60,0.00,,---,0.00,127.00,VWS V14.01,2013-03-03 21:29:00,
2013-03-03 16:30:00,27.0,16.1,30.07,WSW,253,9.0,19.0,63,0.00,,---,0.00,39.00,VWS V14.01,2013-03-03 21:30:00,
2013-03-03 16:34:00,28.3,16.2,30.05,West,260,5.0,14.0,60,0.00,,---,0.00,149.00,VWS V14.01,2013-03-03 21:34:00,
2013-03-03 16:39:00,28.0,15.9,30.05,WSW,242,13.0,17.0,60,0.00,,---,0.00,137.00,VWS V14.01,2013-03-03 21:39:00,
2013-03-03 16:44:00,27.9,15.8,30.05,North,360,3.0,17.0,60,0.00,,---,0.00,118.00,VWS V14.01,2013-03-03 21:44:00,
2013-03-03 16:49:00,27.8,16.1,30.06,West,263,10.0,17.0,61,0.00,,---,0.00,102.00,VWS V14.01,2013-03-03 21:49:00,
2013-03-03 16:54:00,27.6,16.3,30.06,SSW,194,5.0,17.0,62,0.00,,---,0.00,76.00,VWS V14.01,2013-03-03 21:54:00,
2013-03-03 16:59:00,27.5,16.2,30.06,NW,316,7.0,17.0,62,0.00,,---,0.00,146.00,VWS V14.01,2013-03-03 21:59:00,
2013-03-03 17:00:00,26.1,15.6,30.08,NW,307,6.0,16.0,64,0.00,,---,0.00,11.00,VWS V14.01,2013-03-03 22:00:00,
2013-03-03 17:04:00,27.5,16.2,30.06,WNW,296,5.0,13.0,62,0.00,,---,0.00,76.00,VWS V14.01,2013-03-03 22:04:00,
2013-03-03 17:09:00,27.4,15.7,30.06,West,261,10.0,13.0,61,0.00,,---,0.00,53.00,VWS V14.01,2013-03-03 22:09:00,
2013-03-03 17:14:00,27.4,15.7,30.06,NW,310,5.0,13.0,61,0.00,,---,0.00,49.00,VWS V14.01,2013-03-03 22:14:00,
2013-03-03 17:19:00,27.3,15.6,30.07,West,279,2.0,13.0,61,0.00,,---,0.00,47.00,VWS V14.01,2013-03-03 22:19:00,
2013-03-03 17:24:00,27.3,16.0,30.07,NW,313,10.0,19.0,62,0.00,,---,0.00,42.00,VWS V14.01,2013-03-03 22:24:00,
2013-03-03 17:29:00,27.1,16.2,30.07,West,261,4.0,19.0,63,0.00,,---,0.00,46.00,VWS V14.01,2013-03-03 22:29:00,
2013-03-03 17:30:00,25.6,14.8,30.09,NW,319,6.0,18.0,63,0.00,,---,0.00,0.00,VWS V14.01,2013-03-03 22:30:00,
2013-03-03 17:34:00,26.9,16.0,30.07,West,279,10.0,11.0,63,0.00,,---,0.00,33.00,VWS V14.01,2013-03-03 22:34:00,
2013-03-03 17:40:00,26.8,16.3,30.07,NW,323,4.0,15.0,64,0.00,,---,0.00,28.00,VWS V14.01,2013-03-03 22:40:00,
2013-03-03 17:45:00,26.6,16.1,30.07,WNW,284,10.0,15.0,64,0.00,,---,0.00,23.00,VWS V14.01,2013-03-03 22:45:00,
2013-03-03 17:50:00,26.5,16.0,30.07,NNW,339,12.0,15.0,64,0.00,,---,0.00,16.00,VWS V14.01,2013-03-03 22:50:00,
2013-03-03 17:55:00,26.3,15.8,30.08,WNW,295,6.0,16.0,64,0.00,,---,0.00,12.00,VWS V14.01,2013-03-03 22:55:00,
2013-03-03 18:00:00,26.1,16.0,30.08,WSW,256,10.0,16.0,65,0.00,,---,0.00,11.00,VWS V14.01,2013-03-03 23:00:00,
2013-03-03 18:05:00,26.0,15.5,30.08,WNW,298,7.0,13.0,64,0.00,,---,0.00,11.00,VWS V14.01,2013-03-03 23:05:00,
2013-03-03 18:10:00,25.9,15.4,30.08,NW,304,3.0,13.0,64,0.00,,---,0.00,5.00,VWS V14.01,2013-03-03 23:10:00,
2013-03-03 18:15:00,25.8,15.3,30.08,West,275,6.0,13.0,64,0.00,,---,0.00,0.00,VWS V14.01,2013-03-03 23:15:00,
2013-03-03 18:20:00,25.8,15.0,30.08,West,281,5.0,14.0,63,0.00,,---,0.00,0.00,VWS V14.01,2013-03-03 23:20:00,
2013-03-03 18:25:00,25.7,15.2,30.09,WNW,295,6.0,18.0,64,0.00,,---,0.00,0.00,VWS V14.01,2013-03-03 23:25:00,
2013-03-03 18:30:00,25.6,14.8,30.09,West,267,10.0,18.0,63,0.00,,---,0.00,0.00,VWS V14.01,2013-03-03 23:30:00,
2013-03-03 18:35:00,25.5,14.7,30.09,WSW,257,9.0,18.0,63,0.00,,---,0.00,0.00,VWS V14.01,2013-03-03 23:35:00,
2013-03-03 18:40:00,25.3,14.5,30.09,West,259,2.0,18.0,63,0.00,,---,0.00,0.00,VWS V14.01,2013-03-03 23:40:00,
2013-03-03 18:45:00,25.2,14.8,30.09,West,264,4.0,18.0,64,0.00,,---,0.00,0.00,VWS V14.01,2013-03-03 23:45:00,
2013-03-03 18:50:00,25.2,15.1,30.09,WSW,255,4.0,18.0,65,0.00,,---,0.00,0.00,VWS V14.01,2013-03-03 23:50:00,
2013-03-03 18:55:00,25.1,15.4,30.10,WNW,296,5.0,18.0,66,0.00,,---,0.00,0.00,VWS V14.01,2013-03-03 23:55:00,
2013-03-03 19:00:00,25.1,15.4,30.10,West,278,4.0,18.0,66,0.00,,---,0.00,0.00,VWS V14.01,2013-03-04 00:00:00,
2013-03-03 19:05:00,24.9,15.5,30.10,West,267,8.0,13.0,67,0.00,,---,0.00,0.00,VWS V14.01,2013-03-04 00:05:00,
2013-03-03 19:10:00,24.8,15.4,30.10,NW,307,4.0,13.0,67,0.00,,---,0.00,0.00,VWS V14.01,2013-03-04 00:10:00,
2013-03-03 19:15:00,24.7,15.3,30.10,West,267,10.0,13.0,67,0.00,,---,0.00,0.00,VWS V14.01,2013-03-04 00:15:00,
2013-03-03 19:20:00,24.7,15.7,30.10,NW,305,4.0,13.0,68,0.00,,---,0.00,0.00,VWS V14.01,2013-03-04 00:20:00,
2013-03-03 19:25:00,24.5,15.5,30.10,WNW,301,8.0,13.0,68,0.00,,---,0.00,0.00,VWS V14.01,2013-03-04 00:25:00,
2013-03-03 19:30:00,24.5,15.1,30.10,West,265,4.0,15.0,67,0.00,,---,0.00,0.00,VWS V14.01,2013-03-04 00:30:00,
2013-03-03 19:35:00,24.3,14.6,30.10,WNW,301,10.0,15.0,66,0.00,,---,0.00,0.00,VWS V14.01,2013-03-04 00:35:00,
2013-03-03 19:40:00,24.2,14.1,30.11,WNW,286,10.0,15.0,65,0.00,,---,0.00,0.00,VWS V14.01,2013-03-04 00:40:00,
2013-03-03 19:45:00,24.2,14.1,30.11,WNW,284,13.0,15.0,65,0.00,,---,0.00,0.00,VWS V14.01,2013-03-04 00:45:00,
2013-03-03 19:50:00,24.1,14.4,30.11,West,265,6.0,15.0,66,0.00,,---,0.00,0.00,VWS V14.01,2013-03-04 00:50:00,
2013-03-03 19:55:00,24.0,14.3,30.11,West,271,5.0,15.0,66,0.00,,---,0.00,0.00,VWS V14.01,2013-03-04 00:55:00,
2013-03-03 20:00:00,24.0,14.3,30.11,West,259,6.0,15.0,66,0.00,,---,0.00,0.00,VWS V14.01,2013-03-04 01:00:00,
2013-03-03 20:05:00,23.9,14.2,30.11,West,260,6.0,11.0,66,0.00,,---,0.00,0.00,VWS V14.01,2013-03-04 01:05:00,
2013-03-03 20:10:00,23.9,13.9,30.11,NW,321,8.0,11.0,65,0.00,,---,0.00,0.00,VWS V14.01,2013-03-04 01:10:00,
2013-03-03 20:15:00,23.8,14.1,30.11,WNW,301,3.0,11.0,66,0.00,,---,0.00,0.00,VWS V14.01,2013-03-04 01:15:00,
2013-03-03 20:21:00,23.7,14.0,30.11,West,269,6.0,13.0,66,0.00,,---,0.00,0.00,VWS V14.01,2013-03-04 01:21:00,
2013-03-03 20:26:00,23.7,14.0,30.10,WNW,294,7.0,14.0,66,0.00,,---,0.00,0.00,VWS V14.01,2013-03-04 01:26:00,
2013-03-03 20:30:00,23.0,13.0,30.13,WNW,303,4.0,15.0,65,0.00,,---,0.00,0.00,VWS V14.01,2013-03-04 01:30:00,
2013-03-03 20:31:00,23.6,14.3,30.10,West,260,8.0,15.0,67,0.00,,---,0.00,0.00,VWS V14.01,2013-03-04 01:31:00,
2013-03-03 20:36:00,23.6,14.6,30.11,WSW,250,14.0,15.0,68,0.00,,---,0.00,0.00,VWS V14.01,2013-03-04 01:36:00,
2013-03-03 20:41:00,23.5,14.8,30.11,WSW,255,8.0,15.0,69,0.00,,---,0.00,0.00,VWS V14.01,2013-03-04 01:41:00,
2013-03-03 20:46:00,23.5,14.5,30.11,West,273,10.0,15.0,68,0.00,,---,0.00,0.00,VWS V14.01,2013-03-04 01:46:00,
2013-03-03 20:51:00,23.4,14.1,30.11,NW,307,13.0,16.0,67,0.00,,---,0.00,0.00,VWS V14.01,2013-03-04 01:51:00,
2013-03-03 20:56:00,23.4,13.7,30.11,WSW,254,11.0,22.0,66,0.00,,---,0.00,0.00,VWS V14.01,2013-03-04 01:56:00,
2013-03-03 21:00:00,22.9,13.3,30.11,WNW,288,9.0,15.0,66,0.00,,---,0.00,0.00,VWS V14.01,2013-03-04 02:00:00,
2013-03-03 21:01:00,23.3,13.3,30.11,WNW,300,9.0,22.0,65,0.00,,---,0.00,0.00,VWS V14.01,2013-03-04 02:01:00,
2013-03-03 21:06:00,23.3,13.3,30.12,WNW,284,5.0,15.0,65,0.00,,---,0.00,0.00,VWS V14.01,2013-03-04 02:06:00,
2013-03-03 21:11:00,23.2,13.2,30.12,West,278,5.0,15.0,65,0.00,,---,0.00,0.00,VWS V14.01,2013-03-04 02:11:00,
2013-03-03 21:16:00,23.1,13.1,30.12,WSW,257,13.0,15.0,65,0.00,,---,0.00,0.00,VWS V14.01,2013-03-04 02:16:00,
2013-03-03 21:21:00,23.0,13.0,30.12,West,268,11.0,15.0,65,0.00,,---,0.00,0.00,VWS V14.01,2013-03-04 02:21:00,
2013-03-03 21:26:00,23.0,13.0,30.12,West,273,3.0,15.0,65,0.00,,---,0.00,0.00,VWS V14.01,2013-03-04 02:26:00,
2013-03-03 21:30:00,22.8,14.2,30.12,WNW,298,6.0,14.0,69,0.00,,---,0.00,0.00,VWS V14.01,2013-03-04 02:30:00,
2013-03-03 21:31:00,23.0,13.0,30.13,NW,317,5.0,15.0,65,0.00,,---,0.00,0.00,VWS V14.01,2013-03-04 02:31:00,
2013-03-03 21:36:00,22.9,12.9,30.11,West,271,7.0,10.0,65,0.00,,---,0.00,0.00,VWS V14.01,2013-03-04 02:36:00,
2013-03-03 21:41:00,22.9,12.9,30.12,WNW,299,9.0,12.0,65,0.00,,---,0.00,0.00,VWS V14.01,2013-03-04 02:41:00,
2013-03-03 21:46:00,22.9,12.9,30.12,West,265,6.0,12.0,65,0.00,,---,0.00,0.00,VWS V14.01,2013-03-04 02:46:00,
2013-03-03 21:51:00,22.8,12.8,30.12,WNW,289,12.0,15.0,65,0.00,,---,0.00,0.00,VWS V14.01,2013-03-04 02:51:00,
2013-03-03 21:56:00,22.9,13.3,30.12,NW,311,2.0,15.0,66,0.00,,---,0.00,0.00,VWS V14.01,2013-03-04 02:56:00,
2013-03-03 22:00:00,22.7,15.1,30.12,West,278,1.0,12.0,72,0.00,,---,0.00,0.00,VWS V14.01,2013-03-04 03:00:00,
2013-03-03 22:01:00,22.8,13.2,30.11,West,259,10.0,15.0,66,0.00,,---,0.00,0.00,VWS V14.01,2013-03-04 03:01:00,
2013-03-03 22:06:00,22.8,13.2,30.11,NW,304,7.0,14.0,66,0.00,,---,0.00,0.00,VWS V14.01,2013-03-04 03:06:00,
2013-03-03 22:12:00,22.8,13.5,30.11,WNW,300,9.0,14.0,67,0.00,,---,0.00,0.00,VWS V14.01,2013-03-04 03:12:00,
2013-03-03 22:17:00,22.8,13.5,30.12,NNW,347,3.0,14.0,67,0.00,,---,0.00,0.00,VWS V14.01,2013-03-04 03:17:00,
2013-03-03 22:22:00,22.8,13.5,30.12,NW,307,6.0,14.0,67,0.00,,---,0.00,0.00,VWS V14.01,2013-03-04 03:22:00,
2013-03-03 22:27:00,22.8,13.8,30.12,WSW,250,11.0,14.0,68,0.00,,---,0.00,0.00,VWS V14.01,2013-03-04 03:27:00,
2013-03-03 22:30:00,22.7,16.0,30.11,NNW,339,9.0,14.0,75,0.00,,---,0.00,0.00,VWS V14.01,2013-03-04 03:30:00,
2013-03-03 22:32:00,22.8,14.2,30.12,WNW,286,5.0,14.0,69,0.00,,---,0.00,0.00,VWS V14.01,2013-03-04 03:32:00,
2013-03-03 22:37:00,22.7,14.4,30.12,West,273,4.0,10.0,70,0.00,,---,0.00,0.00,VWS V14.01,2013-03-04 03:37:00,
2013-03-03 22:42:00,22.7,14.7,30.11,WNW,286,2.0,12.0,71,0.00,,---,0.00,0.00,VWS V14.01,2013-03-04 03:42:00,
2013-03-03 22:47:00,22.7,14.7,30.11,WSW,249,6.0,12.0,71,0.00,,---,0.00,0.00,VWS V14.01,2013-03-04 03:47:00,
2013-03-03 22:52:00,22.7,15.1,30.12,West,276,1.0,12.0,72,0.00,,---,0.00,0.00,VWS V14.01,2013-03-04 03:52:00,
2013-03-03 22:57:00,22.7,15.1,30.12,NW,325,7.0,12.0,72,0.00,,---,0.00,0.00,VWS V14.01,2013-03-04 03:57:00,
2013-03-03 23:00:00,22.5,15.8,30.11,WNW,292,5.0,15.0,75,0.00,,---,0.00,0.00,VWS V14.01,2013-03-04 04:00:00,
2013-03-03 23:02:00,22.7,15.1,30.12,West,278,2.0,12.0,72,0.00,,---,0.00,0.00,VWS V14.01,2013-03-04 04:02:00,
2013-03-03 23:07:00,22.7,15.4,30.11,NW,319,4.0,7.0,73,0.00,,---,0.00,0.00,VWS V14.01,2013-03-04 04:07:00,
2013-03-03 23:12:00,22.7,15.4,30.11,West,272,6.0,12.0,73,0.00,,---,0.00,0.00,VWS V14.01,2013-03-04 04:12:00,
2013-03-03 23:17:00,22.8,15.8,30.12,WNW,298,3.0,12.0,74,0.00,,---,0.00,0.00,VWS V14.01,2013-03-04 04:17:00,
2013-03-03 23:22:00,22.8,15.8,30.12,WNW,290,9.0,14.0,74,0.00,,---,0.00,0.00,VWS V14.01,2013-03-04 04:22:00,
2013-03-03 23:27:00,22.7,16.0,30.11,WNW,296,3.0,14.0,75,0.00,,---,0.00,0.00,VWS V14.01,2013-03-04 04:27:00,
2013-03-03 23:30:00,22.4,14.1,30.11,WSW,252,12.0,15.0,70,0.00,,---,0.00,0.00,VWS V14.01,2013-03-04 04:30:00,
2013-03-03 23:32:00,22.7,16.0,30.11,NNW,339,9.0,14.0,75,0.00,,---,0.00,0.00,VWS V14.01,2013-03-04 04:32:00,
2013-03-03 23:37:00,22.6,15.9,30.11,WNW,296,0.0,10.0,75,0.00,,---,0.00,0.00,VWS V14.01,2013-03-04 04:37:00,
2013-03-03 23:42:00,22.6,16.2,30.11,WNW,290,0.0,10.0,76,0.00,,---,0.00,0.00,VWS V14.01,2013-03-04 04:42:00,
2013-03-03 23:47:00,22.6,16.2,30.11,NNW,346,3.0,10.0,76,0.00,,---,0.00,0.00,VWS V14.01,2013-03-04 04:47:00,
2013-03-03 23:52:00,22.5,16.1,30.11,NW,314,13.0,13.0,76,0.00,,---,0.00,0.00,VWS V14.01,2013-03-04 04:52:00,
2013-03-03 23:57:00,22.5,15.8,30.11,NW,318,7.0,13.0,75,0.00,,---,0.00,0.00,VWS V14.01,2013-03-04 04:57:00,